createdAt,value
2023-03-26T00:01:23.704Z,20.83
2023-03-26T00:03:54.957Z,22.88
2023-03-26T00:06:23.965Z,25.05
2023-03-26T00:08:51.406Z,22.10
2023-03-26T00:11:21.533Z,22.27
2023-03-26T00:13:48.069Z,22.58
2023-03-26T00:16:17.642Z,26.20
2023-03-26T00:18:44.536Z,26.02
2023-03-26T00:21:14.289Z,23.92
2023-03-26T00:23:41.402Z,24.88
2023-03-26T00:26:10.528Z,25.27
2023-03-26T00:28:40.443Z,24.13
2023-03-26T00:31:09.910Z,19.67
2023-03-26T00:33:38.278Z,20.00
2023-03-26T00:36:10.409Z,34.50
2023-03-26T00:38:38.954Z,26.15
2023-03-26T00:41:17.263Z,23.92
2023-03-26T00:43:48.582Z,21.85
2023-03-26T00:46:15.762Z,26.25
2023-03-26T00:48:46.033Z,26.38
2023-03-26T00:51:18.068Z,34.88
2023-03-26T00:53:46.880Z,25.33
2023-03-26T00:56:14.052Z,28.75
2023-03-26T00:58:41.314Z,19.38
2023-03-26T01:01:15.311Z,31.02
2023-03-26T01:03:50.365Z,27.13
2023-03-26T01:06:35.793Z,43.92
2023-03-26T01:09:07.083Z,26.50
2023-03-26T01:11:35.671Z,26.60
2023-03-26T01:14:09.934Z,24.63
2023-03-26T01:16:45.014Z,30.17
2023-03-26T01:19:17.813Z,27.02
2023-03-26T01:21:44.318Z,23.88
2023-03-26T01:24:10.732Z,23.30
2023-03-26T01:27:01.959Z,26.63
2023-03-26T01:29:46.886Z,31.65
2023-03-26T01:32:41.278Z,28.80
2023-03-26T01:35:17.290Z,19.52
2023-03-26T01:37:58.546Z,28.92
2023-03-26T01:40:28.204Z,25.67
2023-03-26T01:43:08.421Z,26.70
2023-03-26T01:45:38.235Z,31.00
2023-03-26T01:48:07.062Z,32.15
2023-03-26T01:50:33.869Z,30.98
2023-03-26T01:53:00.953Z,28.38
2023-03-26T01:55:44.116Z,21.70
2023-03-26T01:58:46.565Z,24.42
2023-03-26T02:01:32.475Z,24.88
2023-03-26T02:04:08.734Z,26.38
2023-03-26T02:06:58.582Z,29.98
2023-03-26T02:09:30.163Z,24.92
2023-03-26T02:11:57.514Z,29.02
2023-03-26T02:14:24.755Z,25.13
2023-03-26T02:16:51.354Z,23.58
2023-03-26T02:19:21.619Z,24.00
2023-03-26T02:21:51.568Z,19.50
2023-03-26T02:24:20.605Z,21.38
2023-03-26T02:26:47.061Z,22.33
2023-03-26T02:29:14.793Z,17.92
2023-03-26T02:31:41.239Z,22.13
2023-03-26T02:34:07.650Z,23.13
2023-03-26T02:36:35.789Z,22.45
2023-03-26T02:39:03.357Z,26.33
2023-03-26T02:41:29.825Z,23.88
2023-03-26T02:43:56.175Z,24.50
2023-03-26T02:46:22.590Z,19.02
2023-03-26T02:48:49.841Z,26.15
2023-03-26T02:51:18.171Z,20.17
2023-03-26T02:53:44.640Z,25.77
2023-03-26T02:56:12.539Z,16.08
2023-03-26T02:58:38.940Z,17.92
2023-03-26T03:01:05.442Z,23.33
2023-03-26T03:03:31.854Z,14.70
2023-03-26T03:05:58.320Z,17.90
2023-03-26T03:08:26.823Z,20.45
2023-03-26T03:11:02.961Z,19.67
2023-03-26T03:13:29.813Z,17.00
2023-03-26T03:15:56.554Z,18.42
2023-03-26T03:18:23.213Z,26.10
2023-03-26T03:20:49.985Z,18.80
2023-03-26T03:23:16.601Z,24.42
2023-03-26T03:25:43.228Z,19.45
2023-03-26T03:28:09.656Z,22.25
2023-03-26T03:30:36.294Z,17.75
2023-03-26T03:33:03.244Z,25.67
2023-03-26T03:35:30.664Z,24.00
2023-03-26T03:37:58.213Z,16.50
2023-03-26T03:40:25.092Z,29.45
2023-03-26T03:42:51.528Z,17.48
2023-03-26T03:45:18.867Z,18.33
2023-03-26T03:47:45.494Z,14.30
2023-03-26T03:50:11.920Z,22.63
2023-03-26T03:52:38.352Z,22.98
2023-03-26T03:55:05.429Z,23.30
2023-03-26T03:57:33.489Z,16.30
2023-03-26T04:00:00.100Z,21.98
2023-03-26T04:02:30.228Z,22.83
2023-03-26T04:05:00.063Z,20.88
2023-03-26T04:07:27.936Z,13.90
2023-03-26T04:09:54.306Z,22.88
2023-03-26T04:12:20.675Z,23.13
2023-03-26T04:14:47.076Z,27.15
2023-03-26T04:17:13.560Z,18.13
2023-03-26T04:19:40.462Z,24.10
2023-03-26T04:22:07.040Z,20.38
2023-03-26T04:24:42.285Z,16.52
2023-03-26T04:27:14.298Z,16.98
2023-03-26T04:29:43.103Z,25.13
2023-03-26T04:32:22.732Z,21.60
2023-03-26T04:34:49.107Z,21.35
2023-03-26T04:37:39.981Z,23.60
2023-03-26T04:40:15.301Z,27.02
2023-03-26T04:42:45.840Z,24.38
2023-03-26T04:45:17.716Z,20.00
2023-03-26T04:47:46.214Z,25.10
2023-03-26T04:50:12.737Z,16.23
2023-03-26T04:52:39.528Z,28.15
2023-03-26T04:55:13.726Z,19.45
2023-03-26T04:57:46.180Z,16.80
2023-03-26T05:00:17.293Z,19.30
2023-03-26T05:02:43.748Z,19.00
2023-03-26T05:05:10.734Z,15.48
2023-03-26T05:07:37.442Z,23.00
2023-03-26T05:10:05.449Z,20.73
2023-03-26T05:12:31.811Z,16.40
2023-03-26T05:14:58.224Z,15.68
2023-03-26T05:17:25.046Z,20.20
2023-03-26T05:19:52.011Z,16.80
2023-03-26T05:22:18.974Z,20.88
2023-03-26T05:24:45.434Z,14.63
2023-03-26T05:27:16.963Z,22.38
2023-03-26T05:29:43.785Z,13.52
2023-03-26T05:32:10.919Z,21.30
2023-03-26T05:34:39.572Z,19.60
2023-03-26T05:37:06.805Z,23.10
2023-03-26T05:39:33.581Z,14.48
2023-03-26T05:41:59.963Z,15.10
2023-03-26T05:44:26.416Z,14.10
2023-03-26T05:46:52.812Z,17.23
2023-03-26T05:49:19.200Z,14.15
2023-03-26T05:51:45.600Z,12.25
2023-03-26T05:54:12.104Z,17.70
2023-03-26T05:56:38.529Z,17.52
2023-03-26T05:59:04.925Z,19.17
2023-03-26T06:01:31.356Z,17.00
2023-03-26T06:03:57.843Z,19.35
2023-03-26T06:06:24.475Z,22.20
2023-03-26T06:09:01.101Z,12.05
2023-03-26T06:11:28.936Z,20.88
2023-03-26T06:13:55.269Z,17.10
2023-03-26T06:16:27.168Z,16.98
2023-03-26T06:18:56.750Z,18.27
2023-03-26T06:21:27.683Z,21.40
2023-03-26T06:23:54.501Z,17.38
2023-03-26T06:26:21.379Z,19.33
2023-03-26T06:28:47.768Z,18.10
2023-03-26T06:31:14.268Z,16.42
2023-03-26T06:33:40.664Z,18.15
2023-03-26T06:36:07.414Z,18.55
2023-03-26T06:38:33.877Z,21.67
2023-03-26T06:41:05.399Z,17.17
2023-03-26T06:43:33.663Z,15.90
2023-03-26T06:46:01.582Z,22.10
2023-03-26T06:48:28.324Z,21.58
2023-03-26T06:50:55.430Z,15.75
2023-03-26T06:53:22.038Z,20.70
2023-03-26T06:55:48.472Z,14.52
2023-03-26T06:58:14.804Z,15.05
2023-03-26T07:00:42.274Z,16.38
2023-03-26T07:03:08.705Z,14.93
2023-03-26T07:05:35.330Z,19.80
2023-03-26T07:08:03.001Z,15.90
2023-03-26T07:10:29.482Z,18.98
2023-03-26T07:12:56.074Z,16.80
2023-03-26T07:15:22.462Z,12.90
2023-03-26T07:17:49.030Z,15.13
2023-03-26T07:20:15.549Z,13.73
2023-03-26T07:22:42.188Z,15.85
2023-03-26T07:25:09.460Z,14.35
2023-03-26T07:27:46.444Z,11.65
2023-03-26T07:30:23.627Z,15.73
2023-03-26T07:33:01.980Z,13.75
2023-03-26T07:35:36.857Z,12.63
2023-03-26T07:38:19.187Z,17.25
2023-03-26T07:40:55.741Z,14.85
2023-03-26T07:43:30.888Z,15.55
2023-03-26T07:45:57.764Z,15.70
2023-03-26T07:48:27.363Z,14.07
2023-03-26T07:50:55.853Z,12.48
2023-03-26T07:53:23.403Z,15.60
2023-03-26T07:56:01.403Z,17.27
2023-03-26T07:58:46.276Z,13.85
2023-03-26T08:01:43.043Z,15.20
2023-03-26T08:04:24.204Z,15.02
2023-03-26T08:07:03.404Z,12.75
2023-03-26T08:09:38.310Z,17.02
2023-03-26T08:12:36.638Z,13.25
2023-03-26T08:15:07.949Z,12.48
2023-03-26T08:17:56.300Z,15.50
2023-03-26T08:20:30.965Z,12.30
2023-03-26T08:23:06.778Z,13.68
2023-03-26T08:26:02.452Z,15.32
2023-03-26T08:28:46.091Z,15.82
2023-03-26T08:31:15.270Z,17.58
2023-03-26T08:33:41.771Z,15.50
2023-03-26T08:36:09.175Z,14.07
2023-03-26T08:38:35.632Z,14.35
2023-03-26T08:41:11.273Z,14.30
2023-03-26T08:44:13.469Z,11.25
2023-03-26T08:47:09.067Z,11.93
2023-03-26T08:49:55.821Z,10.20
2023-03-26T08:52:59.746Z,13.85
2023-03-26T08:55:45.018Z,14.68
2023-03-26T08:58:37.743Z,10.93
2023-03-26T09:01:23.512Z,11.30
2023-03-26T09:04:27.819Z,12.82
2023-03-26T09:07:12.202Z,16.17
2023-03-26T09:10:15.757Z,8.60
2023-03-26T09:13:19.908Z,15.27
2023-03-26T09:16:06.442Z,12.20
2023-03-26T09:18:58.985Z,17.05
2023-03-26T09:21:31.603Z,12.88
2023-03-26T09:24:06.969Z,14.13
2023-03-26T09:26:50.582Z,8.95
2023-03-26T09:29:42.183Z,8.30
2023-03-26T09:32:36.814Z,12.95
2023-03-26T09:35:13.979Z,6.50
2023-03-26T09:38:26.572Z,5.07
2023-03-26T09:41:06.008Z,8.30
2023-03-26T09:43:36.178Z,11.38
2023-03-26T09:46:26.944Z,7.93
2023-03-26T09:48:57.152Z,5.65
2023-03-26T09:51:44.739Z,7.07
2023-03-26T09:54:50.825Z,5.43
2023-03-26T09:57:36.036Z,5.65
2023-03-26T10:00:32.055Z,6.80
2023-03-26T10:06:00.546Z,5.65
2023-03-26T10:08:49.543Z,10.20
2023-03-26T10:11:23.720Z,5.47
2023-03-26T10:14:03.659Z,4.22
2023-03-26T10:16:41.696Z,5.35
2023-03-26T10:19:41.735Z,5.38
2023-03-26T10:22:27.885Z,2.97
2023-03-26T10:25:21.008Z,4.13
2023-03-26T10:28:03.023Z,5.10
2023-03-26T10:30:53.339Z,3.78
2023-03-26T10:33:37.478Z,2.42
2023-03-26T10:36:26.738Z,5.80
2023-03-26T10:39:37.303Z,4.13
2023-03-26T10:42:14.374Z,2.33
2023-03-26T10:45:02.434Z,1.60
2023-03-26T10:47:47.671Z,1.95
2023-03-26T10:50:29.225Z,3.60
2023-03-26T10:53:25.748Z,1.98
2023-03-26T10:55:56.372Z,4.30
2023-03-26T10:58:29.397Z,3.15
2023-03-26T11:01:32.405Z,4.03
2023-03-26T11:04:10.911Z,3.25
2023-03-26T11:06:54.777Z,3.20
2023-03-26T11:09:39.927Z,2.05
2023-03-26T11:12:26.157Z,2.28
2023-03-26T11:15:08.746Z,4.20
2023-03-26T11:17:59.043Z,1.88
2023-03-26T11:20:45.201Z,4.15
2023-03-26T11:23:37.767Z,3.40
2023-03-26T11:26:31.842Z,1.48
2023-03-26T11:29:31.896Z,2.40
2023-03-26T11:32:11.637Z,4.25
2023-03-26T11:34:58.536Z,2.90
2023-03-26T11:37:52.226Z,4.82
2023-03-26T11:40:25.586Z,1.42
2023-03-26T11:42:58.449Z,2.50
2023-03-26T11:45:29.612Z,3.08
2023-03-26T11:48:12.714Z,2.58
2023-03-26T11:50:45.416Z,1.40
2023-03-26T11:53:14.682Z,1.90
2023-03-26T11:55:54.680Z,2.70
2023-03-26T11:58:31.157Z,3.35
2023-03-26T12:00:57.724Z,2.92
2023-03-26T12:03:24.333Z,2.35
2023-03-26T12:05:57.924Z,3.40
2023-03-26T12:08:33.002Z,2.85
2023-03-26T12:13:36.736Z,1.35
2023-03-26T12:16:19.459Z,2.72
2023-03-26T12:18:57.300Z,4.38
2023-03-26T12:21:23.741Z,1.92
2023-03-26T12:23:59.767Z,1.48
2023-03-26T12:26:44.760Z,1.85
2023-03-26T12:29:14.188Z,2.70
2023-03-26T12:32:15.779Z,2.08
2023-03-26T12:34:42.310Z,1.45
2023-03-26T12:37:36.807Z,3.25
2023-03-26T12:40:35.956Z,3.03
2023-03-26T12:44:49.556Z,1.55
2023-03-26T12:46:03.719Z,2.85
2023-03-26T12:48:43.538Z,2.15
2023-03-26T12:51:29.228Z,1.75
2023-03-26T12:54:15.075Z,1.58
2023-03-26T12:57:12.518Z,3.13
2023-03-26T13:00:10.840Z,2.85
2023-03-26T13:02:59.989Z,2.05
2023-03-26T13:05:47.429Z,1.52
2023-03-26T13:08:20.897Z,1.80
2023-03-26T13:10:57.102Z,2.00
2023-03-26T13:13:41.562Z,3.15
2023-03-26T13:16:12.743Z,1.55
2023-03-26T13:18:51.820Z,1.70
2023-03-26T13:21:37.406Z,3.78
2023-03-26T13:27:17.148Z,1.58
2023-03-26T13:30:04.791Z,2.10
2023-03-26T13:32:48.978Z,1.50
2023-03-26T13:35:25.903Z,1.45
2023-03-26T13:38:05.618Z,3.80
2023-03-26T13:40:47.454Z,2.17
2023-03-26T13:43:25.628Z,2.88
2023-03-26T13:45:59.531Z,2.70
2023-03-26T13:48:30.955Z,1.80
2023-03-26T13:51:08.186Z,1.35
2023-03-26T13:53:47.129Z,2.20
2023-03-26T13:56:17.477Z,1.77
2023-03-26T13:58:53.725Z,1.23
2023-03-26T14:01:33.631Z,2.92
2023-03-26T14:04:08.414Z,1.73
2023-03-26T14:06:58.401Z,1.20
2023-03-26T14:10:11.725Z,1.52
2023-03-26T14:12:56.178Z,2.15
2023-03-26T14:15:47.130Z,2.50
2023-03-26T14:18:27.350Z,1.30
2023-03-26T14:20:59.743Z,1.00
2023-03-26T14:23:48.826Z,3.33
2023-03-26T14:26:40.380Z,1.83
2023-03-26T14:29:12.589Z,2.10
2023-03-26T14:32:00.410Z,1.35
2023-03-26T14:34:56.092Z,1.13
2023-03-26T14:37:44.347Z,3.47
2023-03-26T14:40:16.948Z,0.75
2023-03-26T14:43:07.978Z,1.02
2023-03-26T14:45:49.272Z,0.82
2023-03-26T14:48:31.444Z,1.15
2023-03-26T14:51:19.556Z,1.15
2023-03-26T14:53:53.134Z,1.70
2023-03-26T14:56:49.350Z,1.80
2023-03-26T14:59:24.739Z,1.38
2023-03-26T15:02:42.207Z,2.90
2023-03-26T15:05:23.911Z,1.48
2023-03-26T15:08:02.433Z,1.75
2023-03-26T15:10:59.697Z,2.03
2023-03-26T15:13:59.993Z,1.58
2023-03-26T15:16:41.222Z,5.13
2023-03-26T15:19:29.425Z,1.90
2023-03-26T15:22:21.042Z,1.00
2023-03-26T15:25:08.407Z,3.38
2023-03-26T15:27:49.103Z,1.85
2023-03-26T15:30:58.340Z,1.30
2023-03-26T15:33:45.605Z,2.65
2023-03-26T15:36:39.399Z,1.92
2023-03-26T15:39:30.035Z,2.13
2023-03-26T15:42:07.398Z,2.00
2023-03-26T15:44:53.765Z,2.50
2023-03-26T15:47:39.110Z,2.42
2023-03-26T15:50:26.985Z,2.78
2023-03-26T15:53:18.457Z,3.38
2023-03-26T15:56:19.172Z,3.22
2023-03-26T15:59:11.935Z,1.90
2023-03-26T16:02:02.510Z,4.30
2023-03-26T16:04:57.305Z,6.28
2023-03-26T16:10:29.594Z,5.50
2023-03-26T16:13:27.089Z,4.90
2023-03-26T16:15:56.975Z,5.05
2023-03-26T16:18:51.617Z,3.97
2023-03-26T16:21:36.416Z,4.65
2023-03-26T16:24:02.924Z,5.72
2023-03-26T16:26:44.516Z,5.28
2023-03-26T16:29:18.069Z,5.68
2023-03-26T16:31:58.280Z,4.60
2023-03-26T16:34:36.722Z,5.57
2023-03-26T16:37:08.835Z,5.20
2023-03-26T16:39:39.723Z,4.38
2023-03-26T16:42:14.907Z,4.40
2023-03-26T16:45:12.317Z,5.20
2023-03-26T16:47:47.011Z,5.32
2023-03-26T16:50:42.145Z,6.95
2023-03-26T16:53:24.045Z,7.65
2023-03-26T16:55:59.370Z,8.18
2023-03-26T16:58:30.272Z,12.38
2023-03-26T17:01:22.477Z,14.07
2023-03-26T17:03:49.113Z,13.65
2023-03-26T17:06:34.670Z,23.00
2023-03-26T17:11:42.816Z,25.67
2023-03-26T17:14:32.398Z,21.38
2023-03-26T17:17:23.277Z,21.35
2023-03-26T17:20:13.318Z,19.15
2023-03-26T17:22:46.069Z,23.02
2023-03-26T17:25:22.478Z,19.83
2023-03-26T17:28:09.883Z,18.52
2023-03-26T17:31:04.430Z,20.52
2023-03-26T17:33:34.752Z,15.30
2023-03-26T17:36:20.049Z,19.33
2023-03-26T17:38:46.391Z,27.42
2023-03-26T17:41:15.864Z,20.58
2023-03-26T17:43:52.703Z,18.70
2023-03-26T17:46:37.174Z,12.05
2023-03-26T17:49:12.689Z,15.85
2023-03-26T17:51:51.341Z,16.45
2023-03-26T17:54:24.320Z,20.63
2023-03-26T17:56:53.290Z,16.35
2023-03-26T17:59:23.608Z,20.75
2023-03-26T18:01:57.524Z,18.55
2023-03-26T18:04:53.577Z,17.55
2023-03-26T18:10:39.033Z,21.05
2023-03-26T18:13:38.252Z,21.63
2023-03-26T18:16:31.030Z,16.60
2023-03-26T18:18:59.569Z,23.40
2023-03-26T18:21:38.127Z,19.00
2023-03-26T18:24:06.670Z,18.40
2023-03-26T18:26:37.411Z,19.08
2023-03-26T18:29:27.598Z,11.15
2023-03-26T18:32:00.641Z,20.85
2023-03-26T18:34:31.557Z,17.75
2023-03-26T18:37:18.916Z,16.02
2023-03-26T18:40:11.693Z,17.77
2023-03-26T18:42:45.163Z,15.52
2023-03-26T18:45:26.211Z,14.48
2023-03-26T18:47:54.802Z,15.40
2023-03-26T18:50:30.964Z,12.90
2023-03-26T18:53:00.386Z,16.80
2023-03-26T18:55:29.316Z,16.75
2023-03-26T18:57:57.090Z,13.95
2023-03-26T19:00:27.738Z,13.30
2023-03-26T19:03:05.862Z,17.65
2023-03-26T19:05:36.512Z,17.17
2023-03-26T19:08:05.564Z,14.30
2023-03-26T19:10:33.323Z,11.63
2023-03-26T19:13:04.187Z,18.83
2023-03-26T19:15:32.653Z,10.55
2023-03-26T19:18:07.131Z,11.40
2023-03-26T19:20:42.022Z,14.48
2023-03-26T19:23:13.898Z,17.50
2023-03-26T19:25:43.497Z,10.52
2023-03-26T19:28:23.776Z,8.60
2023-03-26T19:30:57.710Z,13.65
2023-03-26T19:33:32.315Z,18.60
2023-03-26T19:36:05.870Z,15.00
2023-03-26T19:38:44.092Z,13.55
2023-03-26T19:41:38.932Z,12.45
2023-03-26T19:44:28.511Z,16.60
2023-03-26T19:47:03.695Z,16.60
2023-03-26T19:52:14.758Z,15.02
2023-03-26T19:55:15.281Z,14.90
2023-03-26T19:57:41.706Z,16.02
2023-03-26T20:00:13.210Z,14.55
2023-03-26T20:02:45.304Z,17.77
2023-03-26T20:05:19.282Z,15.18
2023-03-26T20:07:45.643Z,11.80
2023-03-26T20:10:12.376Z,11.35
2023-03-26T20:12:38.758Z,14.65
2023-03-26T20:15:20.029Z,11.25
2023-03-26T20:17:49.910Z,14.32
2023-03-26T20:20:17.413Z,22.85
2023-03-26T20:22:46.103Z,16.88
2023-03-26T20:25:20.495Z,17.15
2023-03-26T20:27:46.985Z,7.75
2023-03-26T20:30:16.429Z,14.18
2023-03-26T20:32:45.734Z,14.02
2023-03-26T20:35:35.647Z,13.02
2023-03-26T20:38:03.025Z,17.77
2023-03-26T20:40:29.674Z,13.77
2023-03-26T20:42:56.118Z,9.35
2023-03-26T20:45:23.812Z,23.30
2023-03-26T20:47:50.716Z,14.70
2023-03-26T20:50:23.106Z,14.60
2023-03-26T20:52:50.195Z,12.25
2023-03-26T20:55:21.225Z,17.10
2023-03-26T20:57:48.555Z,11.88
2023-03-26T21:00:19.235Z,17.25
2023-03-26T21:02:53.548Z,12.90
2023-03-26T21:05:25.753Z,10.10
2023-03-26T21:07:57.375Z,11.70
2023-03-26T21:10:29.470Z,12.00
2023-03-26T21:13:27.165Z,16.35
2023-03-26T21:15:53.802Z,15.82
2023-03-26T21:18:20.683Z,10.85
2023-03-26T21:21:03.175Z,13.32
2023-03-26T21:23:43.439Z,16.08
2023-03-26T21:26:18.869Z,18.10
2023-03-26T21:28:48.423Z,11.07
2023-03-26T21:31:18.823Z,14.35
2023-03-26T21:33:46.467Z,10.93
2023-03-26T21:36:13.396Z,13.65
2023-03-26T21:38:43.129Z,8.05
2023-03-26T21:41:30.795Z,9.43
2023-03-26T21:43:59.455Z,13.13
2023-03-26T21:46:26.169Z,15.00
2023-03-26T21:48:52.867Z,22.70
2023-03-26T21:51:19.472Z,16.00
2023-03-26T21:53:46.329Z,15.50
2023-03-26T21:56:43.499Z,13.93
2023-03-26T21:59:30.412Z,12.57
2023-03-26T22:02:21.355Z,15.77
2023-03-26T22:04:53.681Z,15.38
2023-03-26T22:07:48.675Z,12.52
2023-03-26T22:10:15.155Z,19.50
2023-03-26T22:12:42.026Z,13.65
2023-03-26T22:15:08.822Z,19.95
2023-03-26T22:17:35.671Z,18.60
2023-03-26T22:20:07.748Z,16.85
2023-03-26T22:22:34.550Z,16.58
2023-03-26T22:25:01.133Z,14.68
2023-03-26T22:27:27.463Z,8.60
2023-03-26T22:29:54.235Z,19.42
2023-03-26T22:32:21.176Z,14.82
2023-03-26T22:34:47.550Z,13.60
2023-03-26T22:37:14.400Z,15.40
2023-03-26T22:39:40.744Z,19.75
2023-03-26T22:42:07.125Z,11.05
2023-03-26T22:44:33.525Z,15.48
2023-03-26T22:47:01.289Z,13.45
2023-03-26T22:49:30.046Z,18.70
2023-03-26T22:51:57.035Z,7.93
2023-03-26T22:54:23.379Z,9.02
2023-03-26T22:56:52.134Z,10.50
2023-03-26T22:59:18.651Z,12.35
2023-03-26T23:01:45.766Z,11.77
2023-03-26T23:04:12.787Z,13.73
2023-03-26T23:06:57.813Z,15.80
2023-03-26T23:09:26.755Z,17.20
2023-03-26T23:11:53.281Z,16.25
2023-03-26T23:14:19.666Z,17.38
2023-03-26T23:16:45.994Z,14.05
2023-03-26T23:19:12.397Z,21.05
2023-03-26T23:21:38.902Z,16.30
2023-03-26T23:24:05.766Z,9.38
2023-03-26T23:26:49.725Z,13.63
2023-03-26T23:29:17.261Z,17.77
2023-03-26T23:31:43.631Z,13.85
2023-03-26T23:34:10.919Z,15.88
2023-03-26T23:36:37.393Z,13.30
2023-03-26T23:39:04.682Z,13.90
2023-03-26T23:41:31.249Z,13.93
2023-03-26T23:43:57.628Z,12.43
2023-03-26T23:46:30.011Z,16.55
2023-03-26T23:49:02.071Z,15.52
2023-03-26T23:51:30.100Z,15.93
2023-03-26T23:53:56.972Z,12.43
2023-03-26T23:56:23.686Z,12.57
2023-03-26T23:58:50.258Z,10.45
